Time;durP1;ratioP1;P1;durP2;ratioP2;P2;SDS_P1;SDS_P2;PMS_P1;PMS_P2;Temp;Humidity;BMP_temperature;BMP_pressure;BME280_temperature;BME280_humidity;BME280_pressure;Samples;Min_cycle;Max_cycle;Signal;HPM_P1;HPM_P2
2022/12/02 00:01:44;;;;;;;89.10;22.52;;;4.10;99.90;;;;;;5136933;27;20103;-75
2022/12/02 00:04:30;;;;;;;76.43;20.95;;;4.20;99.90;;;;;;5136951;27;20035;-76
2022/12/02 00:06:57;;;;;;;83.10;22.13;;;4.10;99.90;;;;;;5136415;27;20051;-76
2022/12/02 00:09:34;;;;;;;85.75;23.60;;;4.10;99.90;;;;;;5119123;27;20280;-77
2022/12/02 00:12:17;;;;;;;89.03;21.88;;;4.00;99.90;;;;;;5136886;27;20203;-75
2022/12/02 00:14:43;;;;;;;80.13;20.58;;;4.10;99.90;;;;;;5136585;27;20039;-77
2022/12/02 00:17:09;;;;;;;84.18;22.65;;;4.00;99.90;;;;;;5117948;27;20047;-76
2022/12/02 00:19:34;;;;;;;81.50;20.35;;;4.00;99.90;;;;;;5118280;27;20070;-76
2022/12/02 00:22:00;;;;;;;88.47;22.08;;;3.90;99.90;;;;;;5118620;27;20126;-79
2022/12/02 00:24:26;;;;;;;80.65;22.15;;;3.90;99.90;;;;;;5101326;27;20043;-76
2022/12/02 00:26:51;;;;;;;87.07;23.00;;;4.00;99.90;;;;;;5136505;27;20046;-77
2022/12/02 00:29:17;;;;;;;81.00;21.00;;;3.90;99.90;;;;;;5136130;27;20050;-76
2022/12/02 00:31:43;;;;;;;87.20;21.73;;;3.90;99.90;;;;;;5101263;27;20059;-76
2022/12/02 00:34:08;;;;;;;88.35;22.65;;;3.90;99.90;;;;;;5101893;27;20047;-76
2022/12/02 00:36:34;;;;;;;87.57;22.45;;;3.90;99.90;;;;;;5136308;27;20039;-76
2022/12/02 00:39:00;;;;;;;83.32;20.85;;;3.90;99.90;;;;;;5117712;27;20047;-77
2022/12/02 00:41:25;;;;;;;93.13;23.48;;;3.90;99.90;;;;;;5117884;27;20131;-78
2022/12/02 00:46:37;;;;;;;94.97;21.08;;;3.90;99.90;;;;;;5120659;27;20062;-78
2022/12/02 00:49:09;;;;;;;90.13;21.10;;;3.90;99.90;;;;;;5117678;27;20050;-75
2022/12/02 00:51:36;;;;;;;87.72;21.15;;;3.70;99.90;;;;;;5135328;27;20043;-78
2022/12/02 00:54:02;;;;;;;;;;;3.80;99.90;;;;;;5114153;28;20055;-77
2022/12/02 00:56:28;;;;;;;89.55;20.95;;;3.80;99.90;;;;;;5115370;28;19964;-78
2022/12/02 00:58:54;;;;;;;93.45;24.15;;;3.80;99.90;;;;;;5114918;28;20491;-77
2022/12/02 01:01:20;;;;;;;88.85;21.25;;;3.80;99.90;;;;;;5114257;28;20138;-76
2022/12/02 01:03:46;;;;;;;91.32;21.73;;;3.70;99.90;;;;;;5114927;28;20459;-77
2022/12/02 01:06:12;;;;;;;86.85;21.23;;;3.80;99.90;;;;;;5096970;28;20051;-78
2022/12/02 01:08:38;;;;;;;89.03;22.42;;;3.70;99.90;;;;;;5115226;28;20040;-77
2022/12/02 01:11:04;;;;;;;78.10;19.02;;;3.70;99.90;;;;;;5114756;28;20120;-78
2022/12/02 01:13:30;;;;;;;81.85;20.33;;;3.70;99.90;;;;;;5114765;28;20051;-75
2022/12/02 01:15:56;;;;;;;84.05;19.58;;;3.80;99.90;;;;;;5114892;28;20118;-73
2022/12/02 01:18:22;;;;;;;93.77;22.00;;;3.80;99.90;;;;;;5115782;28;20061;-78
2022/12/02 01:20:48;;;;;;;74.60;18.73;;;3.70;99.90;;;;;;5097288;28;20040;-75
2022/12/02 01:23:14;;;;;;;86.38;20.85;;;3.70;99.90;;;;;;5114976;28;20127;-73
2022/12/02 01:25:40;;;;;;;82.53;20.80;;;3.70;99.90;;;;;;5096408;28;20083;-75
2022/12/02 01:28:05;;;;;;;81.97;20.27;;;3.70;99.90;;;;;;5096625;28;20390;-75
2022/12/02 01:30:32;;;;;;;81.03;19.23;;;3.70;99.90;;;;;;5114596;28;20099;-76
2022/12/02 01:32:57;;;;;;;87.97;20.85;;;3.80;99.90;;;;;;5116384;28;20086;-75
2022/12/02 01:35:23;;;;;;;74.55;19.52;;;3.70;99.90;;;;;;5116772;28;20052;-75
2022/12/02 01:37:49;;;;;;;81.70;17.90;;;3.70;99.90;;;;;;5103328;28;20510;-75
2022/12/02 01:40:17;;;;;;;84.50;19.60;;;3.70;99.90;;;;;;5124057;28;20064;-76
2022/12/02 01:42:44;;;;;;;79.28;19.10;;;3.70;99.90;;;;;;5125155;28;20071;-77
2022/12/02 01:45:10;;;;;;;81.40;19.23;;;3.70;99.90;;;;;;5119208;28;20044;-82
2022/12/02 01:47:37;;;;;;;78.57;20.25;;;3.70;99.90;;;;;;5118875;28;20066;-79
2022/12/02 01:50:06;;;;;;;72.05;18.40;;;3.70;99.90;;;;;;5118724;28;20376;-75
2022/12/02 01:52:32;;;;;;;73.20;17.35;;;3.50;99.90;;;;;;5115713;28;20113;-74
2022/12/02 01:54:58;;;;;;;72.35;16.65;;;3.60;99.90;;;;;;5114068;28;20437;-75
2022/12/02 01:57:29;;;;;;;64.80;16.92;;;3.60;99.90;;;;;;5114351;28;20087;-76
2022/12/02 01:59:55;;;;;;;64.22;16.48;;;3.50;99.90;;;;;;5096231;28;20061;-75
2022/12/02 02:02:35;;;;;;;66.60;16.80;;;3.50;99.90;;;;;;5113901;28;20111;-74
2022/12/02 02:05:28;;;;;;;63.08;16.15;;;3.50;99.90;;;;;;5114218;28;20285;-75
2022/12/02 02:08:02;;;;;;;60.67;16.40;;;3.50;99.90;;;;;;5114574;28;20070;-75
2022/12/02 02:10:28;;;;;;;60.40;15.73;;;3.40;99.90;;;;;;5113721;28;20476;-75
2022/12/02 02:12:54;;;;;;;58.10;16.70;;;3.30;99.90;;;;;;5113797;28;20047;-74
2022/12/02 02:15:21;;;;;;;58.03;15.73;;;3.40;99.90;;;;;;5112815;28;20411;-76
2022/12/02 02:17:48;;;;;;;55.17;14.25;;;3.40;99.90;;;;;;5095481;28;20060;-83
2022/12/02 02:20:17;;;;;;;56.72;13.98;;;3.30;99.90;;;;;;5112681;28;20395;-76
2022/12/02 02:22:49;;;;;;;55.97;14.30;;;3.30;99.90;;;;;;5095177;28;20372;-76
2022/12/02 02:25:16;;;;;;;58.20;13.88;;;3.40;99.90;;;;;;5112980;28;20138;-76
2022/12/02 02:27:49;;;;;;;47.35;12.60;;;3.40;99.90;;;;;;5113708;28;20365;-76
2022/12/02 02:30:15;;;;;;;55.60;15.15;;;3.40;99.90;;;;;;5113897;28;20039;-75
2022/12/02 02:32:41;;;;;;;44.75;12.77;;;3.40;99.90;;;;;;5113359;28;20052;-74
2022/12/02 02:35:07;;;;;;;45.28;12.98;;;3.40;99.90;;;;;;5113416;28;20051;-80
2022/12/02 02:37:33;;;;;;;53.80;14.80;;;3.30;99.90;;;;;;5112896;28;20051;-76
2022/12/02 02:39:59;;;;;;;48.30;12.82;;;3.20;99.90;;;;;;5112035;28;20138;-76
2022/12/02 02:42:25;;;;;;;48.22;12.93;;;3.20;99.90;;;;;;5095279;28;20096;-74
2022/12/02 02:44:51;;;;;;;53.58;18.40;;;3.20;99.90;;;;;;5111783;28;20079;-76
2022/12/02 02:47:18;;;;;;;47.43;13.60;;;3.20;99.90;;;;;;5113283;27;20048;-74
2022/12/02 02:49:43;;;;;;;43.97;12.55;;;3.20;99.90;;;;;;5113195;28;20329;-76
2022/12/02 02:52:09;;;;;;;50.28;13.63;;;3.20;99.90;;;;;;5094856;28;20514;-76
2022/12/02 02:54:35;;;;;;;45.95;11.70;;;3.20;99.90;;;;;;5127234;27;20047;-74
2022/12/02 02:57:00;;;;;;;53.72;13.88;;;3.20;99.90;;;;;;5133861;27;20099;-76
2022/12/02 02:59:26;;;;;;;48.22;14.10;;;3.20;99.90;;;;;;5134118;27;20046;-75
2022/12/02 03:01:52;;;;;;;44.28;12.10;;;3.20;99.90;;;;;;5133701;27;20108;-77
2022/12/02 03:04:20;;;;;;;50.17;14.57;;;3.20;99.90;;;;;;5133821;27;20451;-76
2022/12/02 03:06:48;;;;;;;50.40;14.07;;;3.10;99.90;;;;;;5133436;27;20176;-75
2022/12/02 03:09:14;;;;;;;;;;;3.20;99.90;;;;;;5133629;27;20453;-76
2022/12/02 03:11:41;;;;;;;44.90;12.40;;;3.10;99.90;;;;;;5133857;27;19930;-75
2022/12/02 03:14:09;;;;;;;48.10;12.95;;;3.10;99.90;;;;;;5133313;27;20122;-79
2022/12/02 03:16:34;;;;;;;51.10;14.48;;;3.20;99.90;;;;;;5133525;28;20050;-77
2022/12/02 03:19:00;;;;;;;54.03;16.90;;;3.10;99.90;;;;;;5115658;28;20446;-76
2022/12/02 03:21:27;;;;;;;51.88;14.02;;;3.10;99.90;;;;;;5114815;28;20043;-76
2022/12/02 03:23:57;;;;;;;52.55;14.50;;;3.10;99.90;;;;;;5133574;28;20057;-81
2022/12/02 03:26:23;;;;;;;51.10;14.23;;;3.10;99.90;;;;;;5133271;28;20047;-74
2022/12/02 03:28:49;;;;;;;52.85;13.07;;;3.20;99.90;;;;;;5133657;28;20127;-75
2022/12/02 03:31:15;;;;;;;50.50;15.03;;;3.10;99.90;;;;;;5134245;28;20082;-74
2022/12/02 03:33:42;;;;;;;51.42;15.55;;;3.10;99.90;;;;;;5135044;28;20087;-75
2022/12/02 03:36:09;;;;;;;52.72;14.30;;;3.00;99.90;;;;;;5115156;28;20471;-78
2022/12/02 03:38:35;;;;;;;48.72;14.30;;;3.10;99.90;;;;;;5098081;28;20122;-75
2022/12/02 03:41:03;;;;;;;53.17;14.10;;;3.00;99.90;;;;;;5133386;28;20131;-76
2022/12/02 03:43:29;;;;;;;62.47;14.68;;;3.00;99.90;;;;;;5114822;28;20044;-75
2022/12/02 03:45:56;;;;;;;49.50;13.27;;;3.00;99.90;;;;;;5114959;28;20115;-75
2022/12/02 03:48:24;;;;;;;54.05;15.02;;;3.00;99.90;;;;;;5135415;28;20066;-76
2022/12/02 03:50:50;;;;;;;54.10;14.68;;;3.00;99.90;;;;;;5135546;28;20051;-75
2022/12/02 03:53:16;;;;;;;57.33;15.27;;;3.10;99.90;;;;;;5135101;28;20047;-76
2022/12/02 03:55:42;;;;;;;53.42;15.13;;;3.00;99.90;;;;;;5116843;28;20220;-77
2022/12/02 03:58:08;;;;;;;46.88;13.90;;;3.00;99.90;;;;;;5134713;28;20047;-74
2022/12/02 04:00:35;;;;;;;61.13;14.02;;;3.00;99.90;;;;;;5134133;28;20070;-74
2022/12/02 04:03:01;;;;;;;55.58;16.63;;;3.00;99.90;;;;;;5134646;28;20058;-78
2022/12/02 04:05:27;;;;;;;52.72;14.43;;;3.10;99.90;;;;;;5136000;28;20047;-78
2022/12/02 04:07:52;;;;;;;54.45;15.00;;;2.90;99.90;;;;;;5133998;28;20405;-76
2022/12/02 04:10:18;;;;;;;56.85;15.18;;;3.00;99.90;;;;;;5114230;28;20089;-75
2022/12/02 04:12:44;;;;;;;51.22;13.35;;;3.00;99.90;;;;;;5133077;28;20043;-75
2022/12/02 04:15:10;;;;;;;59.72;22.88;;;3.10;99.90;;;;;;5114336;28;20046;-74
2022/12/02 04:17:36;;;;;;;44.55;13.57;;;2.80;99.90;;;;;;5132906;28;20054;-75
2022/12/02 04:20:04;;;;;;;48.95;14.13;;;2.90;99.90;;;;;;5114446;28;20047;-78
2022/12/02 04:22:30;;;;;;;46.83;13.57;;;2.90;99.90;;;;;;5132597;28;20058;-74
2022/12/02 04:24:59;;;;;;;51.33;14.18;;;2.90;99.90;;;;;;5114535;27;20039;-78
2022/12/02 04:27:28;;;;;;;52.35;14.32;;;2.90;99.90;;;;;;5118340;27;20047;-75
2022/12/02 04:29:54;;;;;;;52.55;13.95;;;2.90;99.90;;;;;;5118672;27;20043;-76
2022/12/02 04:32:19;;;;;;;54.00;15.43;;;2.90;99.90;;;;;;5118142;27;20305;-77
2022/12/02 04:34:45;;;;;;;45.70;13.68;;;2.80;99.90;;;;;;5101274;27;20087;-75
2022/12/02 04:37:11;;;;;;;51.05;14.88;;;2.80;99.90;;;;;;5118197;27;20046;-76
2022/12/02 04:39:36;;;;;;;47.22;15.13;;;2.90;99.90;;;;;;5135852;27;20054;-75
2022/12/02 04:42:02;;;;;;;47.17;12.32;;;2.80;99.90;;;;;;5117847;27;20475;-74
2022/12/02 04:44:28;;;;;;;51.45;12.98;;;2.80;99.90;;;;;;5100633;27;20126;-75
2022/12/02 04:46:54;;;;;;;54.47;15.38;;;2.80;99.90;;;;;;5117585;27;20104;-77
2022/12/02 04:49:19;;;;;;;56.78;13.80;;;2.70;99.90;;;;;;5117561;27;20547;-76
2022/12/02 04:51:45;;;;;;;52.70;14.15;;;2.80;99.90;;;;;;5083826;27;20043;-74
2022/12/02 04:54:11;;;;;;;51.42;13.57;;;2.70;99.90;;;;;;5135553;27;20083;-75
2022/12/02 04:56:36;;;;;;;47.78;13.23;;;2.70;99.90;;;;;;5117743;27;20047;-77
2022/12/02 04:59:02;;;;;;;49.47;13.45;;;2.70;99.90;;;;;;5135914;27;20142;-82
2022/12/02 05:01:28;;;;;;;57.22;12.60;;;2.70;99.90;;;;;;5136120;27;20494;-77
2022/12/02 05:03:53;;;;;;;56.80;18.13;;;2.70;99.90;;;;;;5135871;27;20043;-76
2022/12/02 05:06:19;;;;;;;49.65;13.45;;;2.80;99.90;;;;;;5118072;27;20325;-77
2022/12/02 05:08:45;;;;;;;66.38;17.65;;;2.70;99.90;;;;;;5117413;27;20069;-77
2022/12/02 05:11:10;;;;;;;56.15;14.60;;;2.70;99.90;;;;;;5117143;27;20043;-77
2022/12/02 05:13:36;;;;;;;62.40;15.57;;;2.60;99.90;;;;;;5100595;27;20473;-77
2022/12/02 05:16:02;;;;;;;59.55;16.00;;;2.70;99.90;;;;;;5135791;27;20042;-78
2022/12/02 05:18:27;;;;;;;61.15;14.93;;;2.60;99.90;;;;;;5135339;27;20054;-77
2022/12/02 05:20:53;;;;;;;57.13;15.00;;;2.60;99.90;;;;;;5117121;27;20051;-76
2022/12/02 05:23:19;;;;;;;52.55;13.40;;;2.60;99.90;;;;;;5117824;27;20039;-78
2022/12/02 05:25:45;;;;;;;56.47;15.25;;;2.70;99.90;;;;;;5117106;27;20047;-76
2022/12/02 05:28:10;;;;;;;52.50;15.32;;;2.70;99.90;;;;;;5116777;27;20134;-77
2022/12/02 05:30:36;;;;;;;58.83;15.75;;;2.70;99.90;;;;;;5116769;27;20456;-78
2022/12/02 05:33:01;;;;;;;55.90;14.93;;;2.60;99.90;;;;;;5116793;27;20093;-77
2022/12/02 05:35:27;;;;;;;57.75;14.00;;;2.50;99.90;;;;;;5135072;27;20098;-77
2022/12/02 05:37:53;;;;;;;63.45;15.38;;;2.60;99.90;;;;;;5099841;27;20043;-75
2022/12/02 05:40:18;;;;;;;59.70;14.93;;;2.50;99.90;;;;;;5134910;27;20113;-77
2022/12/02 05:42:44;;;;;;;65.03;16.52;;;2.60;99.90;;;;;;5135141;27;20039;-74
2022/12/02 05:45:17;;;;;;;60.95;16.48;;;2.60;99.90;;;;;;5134886;27;20372;-77
2022/12/02 05:47:47;;;;;;;52.85;16.42;;;2.50;99.90;;;;;;5116715;27;20049;-77
2022/12/02 05:50:14;;;;;;;66.95;17.92;;;2.50;99.90;;;;;;5099865;27;20050;-76
2022/12/02 05:52:40;;;;;;;57.03;15.48;;;2.50;99.90;;;;;;5135600;27;20420;-74
2022/12/02 05:55:18;;;;;;;57.67;14.17;;;2.50;99.90;;;;;;5134941;27;20107;-74
2022/12/02 05:57:45;;;;;;;62.63;15.75;;;2.60;99.90;;;;;;5116835;27;20039;-78
2022/12/02 06:00:19;;;;;;;66.97;15.60;;;2.60;99.90;;;;;;5115735;27;20039;-75
2022/12/02 06:02:54;;;;;;;62.17;15.18;;;2.50;99.90;;;;;;5134306;27;20122;-77
2022/12/02 06:05:23;;;;;;;60.28;13.80;;;2.50;99.90;;;;;;5116436;27;20039;-75
2022/12/02 06:07:53;;;;;;;66.20;16.70;;;2.60;99.90;;;;;;5115933;27;20416;-74
2022/12/02 06:10:28;;;;;;;65.32;15.48;;;2.50;99.90;;;;;;5133697;27;20131;-75
2022/12/02 06:13:15;;;;;;;60.50;14.50;;;2.40;99.90;;;;;;5115866;27;20051;-75
2022/12/02 06:15:40;;;;;;;63.33;15.77;;;2.50;99.90;;;;;;5134363;27;20075;-76
2022/12/02 06:18:14;;;;;;;56.45;13.35;;;2.50;99.90;;;;;;5133952;27;20106;-75
2022/12/02 06:20:41;;;;;;;65.72;14.73;;;2.50;99.90;;;;;;5134003;27;20127;-76
2022/12/02 06:23:17;;;;;;;60.10;15.07;;;2.50;99.90;;;;;;5134002;27;20404;-74
2022/12/02 06:25:44;;;;;;;59.90;15.52;;;2.50;99.90;;;;;;5138993;27;20084;-75
2022/12/02 06:28:34;;;;;;;65.07;17.77;;;2.50;99.90;;;;;;5141706;27;20047;-76
2022/12/02 06:31:19;;;;;;;64.05;15.48;;;2.40;99.90;;;;;;5144847;27;20047;-73
2022/12/02 06:33:48;;;;;;;64.88;16.52;;;2.40;99.90;;;;;;5141636;27;20355;-76
2022/12/02 06:36:19;;;;;;;66.78;15.32;;;2.40;99.90;;;;;;5139910;27;20120;-79
2022/12/02 06:38:52;;;;;;;63.83;15.18;;;2.40;99.90;;;;;;5121519;27;20075;-77
2022/12/02 06:41:27;;;;;;;68.10;17.27;;;2.40;99.90;;;;;;5139825;27;20035;-75
2022/12/02 06:47:25;;;;;;;68.28;15.70;;;2.30;99.90;;;;;;5136730;27;20039;-75
2022/12/02 06:49:51;;;;;;;68.82;16.20;;;2.20;99.90;;;;;;5116592;27;20039;-76
2022/12/02 06:52:21;;;;;;;72.25;16.90;;;2.20;99.90;;;;;;5134527;27;20038;-76
2022/12/02 06:54:47;;;;;;;72.93;17.40;;;2.30;99.90;;;;;;5111872;28;20051;-76
2022/12/02 06:57:17;;;;;;;72.88;16.05;;;2.30;99.90;;;;;;5113035;28;20073;-75
2022/12/02 06:59:47;;;;;;;69.65;16.52;;;2.20;99.90;;;;;;5113142;28;20047;-75
2022/12/02 07:02:39;;;;;;;85.90;20.98;;;2.30;99.90;;;;;;5111546;28;20048;-75
2022/12/02 07:05:05;;;;;;;64.72;15.40;;;2.20;99.90;;;;;;5110592;28;20052;-76
2022/12/02 07:07:32;;;;;;;71.18;19.38;;;2.30;99.90;;;;;;5111593;28;20083;-76
2022/12/02 07:09:59;;;;;;;;;;;2.20;99.90;;;;;;5113802;28;20142;-74
2022/12/02 07:12:34;;;;;;;72.57;15.88;;;2.20;99.90;;;;;;5112788;28;19927;-74
2022/12/02 07:15:21;;;;;;;100.88;25.83;;;2.30;99.90;;;;;;5112777;28;20047;-74
2022/12/02 07:17:47;;;;;;;88.05;18.25;;;2.20;99.90;;;;;;5095194;28;20478;-75
2022/12/02 07:20:22;;;;;;;71.82;17.40;;;2.30;99.90;;;;;;5112590;28;20122;-77
2022/12/02 07:22:53;;;;;;;86.60;21.75;;;2.30;99.90;;;;;;5112648;28;20131;-74
2022/12/02 07:25:41;;;;;;;72.82;18.75;;;2.20;99.90;;;;;;5112961;28;20092;-80
2022/12/02 07:28:24;;;;;;;86.10;18.63;;;2.20;99.90;;;;;;5112942;28;20051;-74
2022/12/02 07:31:12;;;;;;;74.75;18.52;;;2.20;99.90;;;;;;5111833;28;20062;-75
2022/12/02 07:33:38;;;;;;;75.30;18.30;;;2.20;99.90;;;;;;5113021;28;20075;-74
2022/12/02 07:36:04;;;;;;;73.07;17.25;;;2.30;99.90;;;;;;5112848;28;20078;-74
2022/12/02 07:38:29;;;;;;;70.28;18.58;;;2.40;99.90;;;;;;5111445;28;20047;-73
2022/12/02 07:40:55;;;;;;;79.60;18.75;;;2.40;99.90;;;;;;5112548;28;20035;-75
2022/12/02 07:43:21;;;;;;;77.45;17.88;;;2.40;99.90;;;;;;5111306;28;20047;-81
2022/12/02 07:45:46;;;;;;;78.55;18.38;;;2.30;99.90;;;;;;5111582;28;20039;-76
2022/12/02 07:48:12;;;;;;;89.45;23.70;;;2.40;99.90;;;;;;5111426;28;20448;-73
2022/12/02 07:50:38;;;;;;;80.65;19.27;;;2.30;99.90;;;;;;5110977;28;20043;-74
2022/12/02 07:53:04;;;;;;;74.40;19.23;;;2.40;99.90;;;;;;5094453;28;20041;-75
2022/12/02 07:55:29;;;;;;;77.95;18.13;;;2.40;99.90;;;;;;5132517;28;20051;-75
2022/12/02 07:57:55;;;;;;;87.05;20.33;;;2.40;99.90;;;;;;5133246;28;20168;-75
2022/12/02 08:00:22;;;;;;;78.90;19.58;;;2.40;99.90;;;;;;5135541;27;20031;-74
2022/12/02 08:02:48;;;;;;;71.82;19.35;;;2.40;99.90;;;;;;5118551;27;20125;-74
2022/12/02 08:05:14;;;;;;;76.82;19.38;;;2.40;99.90;;;;;;5101640;27;20122;-76
2022/12/02 08:07:41;;;;;;;90.25;23.15;;;2.40;99.90;;;;;;5136614;27;20062;-74
2022/12/02 08:10:07;;;;;;;79.25;18.40;;;2.40;99.90;;;;;;5101643;27;20114;-75
2022/12/02 08:12:33;;;;;;;77.53;18.67;;;2.40;99.90;;;;;;5118314;27;20042;-75
2022/12/02 08:14:59;;;;;;;83.20;20.10;;;2.50;99.90;;;;;;5136880;27;20273;-75
2022/12/02 08:17:24;;;;;;;72.80;18.10;;;2.40;99.90;;;;;;5136581;27;20082;-80
2022/12/02 08:19:50;;;;;;;81.03;19.15;;;2.50;99.90;;;;;;5136584;27;20031;-74
2022/12/02 08:22:16;;;;;;;80.57;19.65;;;2.50;99.90;;;;;;5136466;27;20122;-76
2022/12/02 08:24:42;;;;;;;67.30;16.52;;;2.40;99.90;;;;;;5117683;27;20131;-74
2022/12/02 08:27:07;;;;;;;73.00;18.20;;;2.50;99.90;;;;;;5117999;27;20416;-76
2022/12/02 08:29:33;;;;;;;80.13;18.08;;;2.60;99.90;;;;;;5136232;27;20057;-75
2022/12/02 08:31:59;;;;;;;82.95;20.02;;;2.60;99.90;;;;;;5136354;27;20079;-75
2022/12/02 08:34:25;;;;;;;75.72;17.67;;;2.60;99.90;;;;;;5118000;27;20035;-77
2022/12/02 08:36:50;;;;;;;71.07;18.17;;;2.60;99.90;;;;;;5117822;27;20441;-75
2022/12/02 08:39:16;;;;;;;76.93;18.10;;;2.60;99.90;;;;;;5084056;27;20039;-74
2022/12/02 08:41:42;;;;;;;76.38;18.92;;;2.70;99.90;;;;;;5117988;27;20135;-75
2022/12/02 08:44:07;;;;;;;76.00;19.67;;;2.70;99.90;;;;;;5136159;27;20043;-75
2022/12/02 08:46:33;;;;;;;77.53;19.30;;;2.70;99.90;;;;;;5135939;27;20043;-75
2022/12/02 08:48:59;;;;;;;73.80;19.42;;;2.70;99.90;;;;;;5135882;27;20413;-76
2022/12/02 08:51:25;;;;;;;75.07;18.30;;;2.60;99.90;;;;;;5117989;27;20101;-74
2022/12/02 08:53:52;;;;;;;70.03;17.15;;;2.60;99.90;;;;;;5113772;28;20112;-79
2022/12/02 08:56:17;;;;;;;78.35;17.98;;;2.60;99.90;;;;;;5115392;28;20480;-74
2022/12/02 08:58:43;;;;;;;106.53;26.42;;;2.70;99.90;;;;;;5115168;28;20039;-75
2022/12/02 09:01:09;;;;;;;75.38;18.20;;;2.60;99.90;;;;;;5115157;28;20086;-74
2022/12/02 09:03:35;;;;;;;81.30;19.17;;;2.70;99.90;;;;;;5115722;28;20043;-74
2022/12/02 09:06:01;;;;;;;88.70;20.27;;;2.80;99.90;;;;;;5115656;28;20312;-76
2022/12/02 09:08:26;;;;;;;89.22;18.83;;;2.70;99.90;;;;;;5114773;28;20107;-73
2022/12/02 09:10:52;;;;;;;83.75;19.65;;;2.80;99.90;;;;;;5095699;28;20044;-77
2022/12/02 09:13:18;;;;;;;74.72;18.55;;;2.80;99.90;;;;;;5113728;28;20047;-73
2022/12/02 09:15:43;;;;;;;86.68;18.75;;;2.90;99.90;;;;;;5113633;28;20148;-73
2022/12/02 09:18:09;;;;;;;84.43;18.77;;;3.00;99.90;;;;;;5113292;28;20505;-73
2022/12/02 09:20:35;;;;;;;85.68;19.73;;;3.00;99.90;;;;;;5114572;28;20043;-76
2022/12/02 09:23:00;;;;;;;74.22;16.75;;;3.10;99.90;;;;;;5114852;28;20043;-75
2022/12/02 09:25:26;;;;;;;74.13;17.45;;;3.20;99.90;;;;;;5114491;28;20123;-73
2022/12/02 09:27:53;;;;;;;70.30;16.48;;;3.10;99.90;;;;;;5114538;28;20095;-75
2022/12/02 09:30:19;;;;;;;73.97;17.03;;;3.10;99.90;;;;;;5114572;28;20122;-75
2022/12/02 09:32:45;;;;;;;76.78;17.25;;;3.10;99.90;;;;;;5114556;28;20281;-73
2022/12/02 09:35:11;;;;;;;84.40;17.55;;;3.20;99.90;;;;;;5114637;28;20035;-74
2022/12/02 09:37:36;;;;;;;80.72;18.35;;;3.20;99.90;;;;;;5114135;28;20181;-73
2022/12/02 09:40:04;;;;;;;77.47;17.20;;;3.10;99.90;;;;;;5112984;28;20039;-77
2022/12/02 09:42:30;;;;;;;79.38;17.15;;;3.10;99.90;;;;;;5113126;28;20079;-74
2022/12/02 09:44:57;;;;;;;85.30;19.63;;;3.20;99.90;;;;;;5113505;28;20086;-75
2022/12/02 09:47:23;;;;;;;84.95;18.27;;;3.10;99.90;;;;;;5114320;28;20079;-77
2022/12/02 09:49:49;;;;;;;78.50;18.43;;;3.10;99.90;;;;;;5113509;28;20035;-75
2022/12/02 09:52:23;;;;;;;75.88;17.85;;;3.10;99.90;;;;;;5114900;28;20754;-78
2022/12/02 09:54:51;;;;;;;88.20;19.60;;;3.10;99.90;;;;;;5113731;28;20472;-76
2022/12/02 09:57:17;;;;;;;92.15;20.60;;;2.90;99.90;;;;;;5114823;28;20051;-75
2022/12/02 09:59:44;;;;;;;67.07;17.60;;;3.00;99.90;;;;;;5115925;28;20039;-75
2022/12/02 10:02:19;;;;;;;87.80;18.63;;;3.00;99.90;;;;;;5116170;28;20119;-76
2022/12/02 10:04:44;;;;;;;69.90;17.55;;;3.00;99.90;;;;;;5114156;28;20043;-74
2022/12/02 10:07:10;;;;;;;96.45;19.17;;;3.10;99.90;;;;;;5114690;28;20124;-73
2022/12/02 10:09:36;;;;;;;73.85;17.27;;;3.00;99.90;;;;;;5114603;28;20073;-78
2022/12/02 10:12:02;;;;;;;65.95;16.40;;;3.10;99.90;;;;;;5115370;28;20055;-78
2022/12/02 10:14:28;;;;;;;80.03;19.10;;;3.10;99.90;;;;;;5115161;28;20108;-76
2022/12/02 10:16:54;;;;;;;72.25;18.65;;;2.90;99.90;;;;;;5113747;28;20050;-75
2022/12/02 10:19:20;;;;;;;80.25;18.67;;;3.00;99.90;;;;;;5114136;28;20413;-73
2022/12/02 10:21:46;;;;;;;66.00;14.52;;;2.90;99.90;;;;;;5112292;28;20035;-78
2022/12/02 10:24:12;;;;;;;58.20;14.27;;;3.00;99.90;;;;;;5113020;28;20407;-76
2022/12/02 10:26:52;;;;;;;62.10;14.13;;;2.90;99.90;;;;;;5113366;28;20067;-78
2022/12/02 10:29:27;;;;;;;57.70;12.48;;;3.00;99.90;;;;;;5095298;28;20043;-75
2022/12/02 10:32:23;;;;;;;71.07;15.40;;;3.00;99.90;;;;;;5113390;28;20044;-75
2022/12/02 10:35:08;;;;;;;62.22;15.93;;;2.90;99.90;;;;;;5106833;28;20044;-75
2022/12/02 10:37:34;;;;;;;72.45;15.63;;;3.00;99.90;;;;;;5112640;28;20045;-76
2022/12/02 10:40:15;;;;;;;66.90;14.25;;;3.00;99.90;;;;;;5113155;28;20043;-77
2022/12/02 10:42:43;;;;;;;60.63;14.43;;;3.10;99.90;;;;;;5112441;28;20086;-82
2022/12/02 10:45:20;;;;;;;56.75;14.35;;;3.20;99.90;;;;;;5113256;28;20464;-76
2022/12/02 10:47:47;;;;;;;59.92;14.27;;;3.10;99.90;;;;;;5113461;28;20040;-74
2022/12/02 10:50:18;;;;;;;54.65;13.18;;;3.10;99.90;;;;;;5113248;28;20086;-76
2022/12/02 10:52:49;;;;;;;47.03;10.75;;;3.20;99.90;;;;;;5112154;28;20452;-75
2022/12/02 10:55:17;;;;;;;62.00;14.23;;;3.30;99.90;;;;;;5126809;27;20047;-74
2022/12/02 10:57:43;;;;;;;56.33;13.95;;;3.20;99.90;;;;;;5133665;27;20091;-80
2022/12/02 11:00:24;;;;;;;63.30;16.17;;;3.10;99.90;;;;;;5133993;27;20043;-78
2022/12/02 11:02:55;;;;;;;47.13;11.48;;;3.00;99.90;;;;;;5098421;27;20300;-76
2022/12/02 11:05:29;;;;;;;46.40;11.85;;;3.00;99.90;;;;;;5116136;27;20047;-75
2022/12/02 11:08:00;;;;;;;47.38;12.88;;;3.10;99.90;;;;;;5115917;27;20078;-77
2022/12/02 11:10:37;;;;;;;61.88;14.75;;;3.00;99.90;;;;;;5133437;27;20148;-75
2022/12/02 11:13:12;;;;;;;;;;;2.80;99.90;;;;;;5134144;28;20078;-76
2022/12/02 11:15:42;;;;;;;63.08;13.63;;;2.70;99.90;;;;;;5136742;28;19915;-75
2022/12/02 11:18:29;;;;;;;53.70;13.77;;;2.80;99.90;;;;;;5104394;28;20043;-74
2022/12/02 11:21:27;;;;;;;56.30;14.70;;;2.90;99.90;;;;;;5143022;28;20347;-76
2022/12/02 11:24:25;;;;;;;49.17;13.32;;;2.90;99.90;;;;;;5142128;28;20131;-83
2022/12/02 11:27:00;;;;;;;56.53;14.18;;;2.90;99.90;;;;;;5146248;28;20102;-77
2022/12/02 11:29:31;;;;;;;60.97;15.70;;;2.80;99.90;;;;;;5147460;28;20073;-78
2022/12/02 11:32:21;;;;;;;60.00;15.38;;;2.80;99.90;;;;;;5111147;28;20041;-76
2022/12/02 11:34:58;;;;;;;60.33;15.68;;;2.80;99.90;;;;;;5142637;27;20050;-77
2022/12/02 11:40:01;;;;;;;46.60;12.25;;;2.90;99.90;;;;;;5140570;27;19915;-74
2022/12/02 11:42:28;;;;;;;63.58;16.58;;;2.90;99.90;;;;;;5138857;27;20047;-77
2022/12/02 11:45:09;;;;;;;69.22;16.05;;;3.00;99.90;;;;;;5137723;27;20127;-76
2022/12/02 11:47:35;;;;;;;69.63;16.30;;;3.00;99.90;;;;;;5119985;27;20370;-77
2022/12/02 11:50:13;;;;;;;68.97;17.02;;;3.00;99.90;;;;;;5137899;27;20048;-77
2022/12/02 11:52:43;;;;;;;53.92;14.70;;;3.00;99.90;;;;;;5137291;27;20103;-75
2022/12/02 11:55:17;;;;;;;65.65;16.48;;;3.00;99.90;;;;;;5118312;27;20534;-76
2022/12/02 11:57:46;;;;;;;68.00;17.88;;;3.00;99.90;;;;;;5137715;27;20039;-75
2022/12/02 12:00:19;;;;;;;68.75;18.08;;;2.90;99.90;;;;;;5136959;27;20138;-80
2022/12/02 12:02:45;;;;;;;73.93;17.85;;;3.00;99.90;;;;;;5119076;27;20042;-77
2022/12/02 12:05:10;;;;;;;85.75;19.80;;;3.00;99.90;;;;;;5137325;27;20315;-78
2022/12/02 12:07:44;;;;;;;66.05;15.85;;;2.90;99.90;;;;;;5136943;27;20039;-79
2022/12/02 12:10:23;;;;;;;75.60;17.90;;;3.00;99.90;;;;;;5136933;27;20491;-76
2022/12/02 12:13:15;;;;;;;75.90;18.70;;;2.90;99.90;;;;;;5118522;27;20031;-77
2022/12/02 12:15:58;;;;;;;81.00;19.25;;;2.90;99.90;;;;;;5136512;27;20043;-77
2022/12/02 12:19:01;;;;;;;77.75;19.38;;;2.80;99.90;;;;;;5101421;27;20047;-77
2022/12/02 12:21:29;;;;;;;74.60;19.27;;;2.80;99.90;;;;;;5076023;27;20043;-77
2022/12/02 12:24:19;;;;;;;77.20;18.95;;;2.90;99.90;;;;;;5136476;27;20087;-76
2022/12/02 12:26:57;;;;;;;77.90;19.63;;;2.90;99.90;;;;;;5119053;27;20039;-76
2022/12/02 12:29:31;;;;;;;89.03;20.73;;;2.90;99.90;;;;;;5137285;27;20039;-75
2022/12/02 12:31:58;;;;;;;92.53;22.50;;;2.80;99.90;;;;;;5136504;27;20153;-76
2022/12/02 12:34:24;;;;;;;89.90;22.77;;;2.80;99.90;;;;;;5136550;27;20051;-77
2022/12/02 12:36:50;;;;;;;86.77;21.73;;;2.90;99.90;;;;;;5118352;27;20137;-80
2022/12/02 12:39:16;;;;;;;82.57;21.98;;;2.90;99.90;;;;;;5136627;27;20352;-82
2022/12/02 12:41:43;;;;;;;91.72;22.70;;;2.90;99.90;;;;;;5101407;27;20137;-79
2022/12/02 12:44:09;;;;;;;89.27;22.73;;;2.90;99.90;;;;;;5136115;27;20039;-79
2022/12/02 12:46:34;;;;;;;89.95;22.50;;;2.90;99.90;;;;;;5116456;27;20058;-77
2022/12/02 12:49:00;;;;;;;87.65;21.85;;;2.90;99.90;;;;;;5118264;27;20043;-76
2022/12/02 12:51:26;;;;;;;91.40;22.60;;;2.90;99.90;;;;;;5136121;27;20035;-80
2022/12/02 12:53:52;;;;;;;96.60;23.08;;;3.00;99.90;;;;;;5101248;27;20035;-78
2022/12/02 12:56:18;;;;;;;85.70;22.02;;;3.00;99.90;;;;;;5118022;27;20058;-78